sensor_id;sensor_type;location;lat;lon;timestamp;temperature;humidity
871;DHT22;422;51.280;7.236;2023-12-29T00:00:16;9.60;13.50
871;DHT22;422;51.280;7.236;2023-12-29T00:02:43;9.60;2.80
871;DHT22;422;51.280;7.236;2023-12-29T00:05:10;9.60;1.00
871;DHT22;422;51.280;7.236;2023-12-29T00:07:37;9.70;4.30
871;DHT22;422;51.280;7.236;2023-12-29T00:10:06;9.70;14.30
871;DHT22;422;51.280;7.236;2023-12-29T00:12:33;9.70;11.70
871;DHT22;422;51.280;7.236;2023-12-29T00:15:00;9.70;1.00
871;DHT22;422;51.280;7.236;2023-12-29T00:17:29;9.80;7.10
871;DHT22;422;51.280;7.236;2023-12-29T00:19:58;9.80;1.00
871;DHT22;422;51.280;7.236;2023-12-29T00:22:25;9.80;11.60
871;DHT22;422;51.280;7.236;2023-12-29T00:24:53;9.70;14.40
871;DHT22;422;51.280;7.236;2023-12-29T00:27:20;9.70;39.30
871;DHT22;422;51.280;7.236;2023-12-29T00:29:48;9.80;1.00
871;DHT22;422;51.280;7.236;2023-12-29T00:32:15;9.80;11.90
871;DHT22;422;51.280;7.236;2023-12-29T00:34:44;9.80;30.60
871;DHT22;422;51.280;7.236;2023-12-29T00:37:11;9.70;16.50
871;DHT22;422;51.280;7.236;2023-12-29T00:39:38;9.70;47.60
871;DHT22;422;51.280;7.236;2023-12-29T00:42:06;9.70;84.90
871;DHT22;422;51.280;7.236;2023-12-29T00:44:33;9.80;58.50
871;DHT22;422;51.280;7.236;2023-12-29T00:47:01;9.70;51.00
871;DHT22;422;51.280;7.236;2023-12-29T00:49:28;9.80;39.80
871;DHT22;422;51.280;7.236;2023-12-29T00:51:56;9.80;51.40
871;DHT22;422;51.280;7.236;2023-12-29T00:54:24;9.80;42.00
871;DHT22;422;51.280;7.236;2023-12-29T00:56:51;9.80;25.00
871;DHT22;422;51.280;7.236;2023-12-29T00:59:19;9.80;32.70
871;DHT22;422;51.280;7.236;2023-12-29T01:01:46;9.80;37.00
871;DHT22;422;51.280;7.236;2023-12-29T01:04:14;9.80;37.60
871;DHT22;422;51.280;7.236;2023-12-29T01:06:41;9.80;26.90
871;DHT22;422;51.280;7.236;2023-12-29T01:09:09;9.80;53.70
871;DHT22;422;51.280;7.236;2023-12-29T01:11:37;9.80;43.50
871;DHT22;422;51.280;7.236;2023-12-29T01:14:04;9.80;20.90
871;DHT22;422;51.280;7.236;2023-12-29T01:16:32;9.90;13.20
871;DHT22;422;51.280;7.236;2023-12-29T01:18:59;9.80;43.10
871;DHT22;422;51.280;7.236;2023-12-29T01:21:26;9.80;5.80
871;DHT22;422;51.280;7.236;2023-12-29T01:23:54;9.90;1.00
871;DHT22;422;51.280;7.236;2023-12-29T01:26:22;9.90;1.00
871;DHT22;422;51.280;7.236;2023-12-29T01:28:49;9.90;1.00
871;DHT22;422;51.280;7.236;2023-12-29T01:31:16;9.90;1.00
871;DHT22;422;51.280;7.236;2023-12-29T01:33:44;9.90;1.00
871;DHT22;422;51.280;7.236;2023-12-29T01:36:17;9.90;1.00
871;DHT22;422;51.280;7.236;2023-12-29T01:38:45;9.90;1.00
871;DHT22;422;51.280;7.236;2023-12-29T01:41:13;10.00;1.00
871;DHT22;422;51.280;7.236;2023-12-29T01:44:18;10.00;1.00
871;DHT22;422;51.280;7.236;2023-12-29T01:46:49;10.00;1.00
871;DHT22;422;51.280;7.236;2023-12-29T01:49:16;10.00;1.00
871;DHT22;422;51.280;7.236;2023-12-29T01:51:45;10.00;1.00
871;DHT22;422;51.280;7.236;2023-12-29T01:54:16;10.00;1.00
871;DHT22;422;51.280;7.236;2023-12-29T01:56:44;10.00;1.00
871;DHT22;422;51.280;7.236;2023-12-29T01:59:11;9.90;1.00
871;DHT22;422;51.280;7.236;2023-12-29T02:01:40;10.00;1.00
871;DHT22;422;51.280;7.236;2023-12-29T02:04:08;9.90;1.00
871;DHT22;422;51.280;7.236;2023-12-29T02:06:35;9.90;1.00
871;DHT22;422;51.280;7.236;2023-12-29T02:09:03;9.90;11.00
871;DHT22;422;51.280;7.236;2023-12-29T02:11:30;9.90;99.00
871;DHT22;422;51.280;7.236;2023-12-29T02:13:58;9.90;48.90
871;DHT22;422;51.280;7.236;2023-12-29T02:16:33;9.90;95.90
871;DHT22;422;51.280;7.236;2023-12-29T02:19:13;9.90;99.90
871;DHT22;422;51.280;7.236;2023-12-29T02:21:41;9.90;99.90
871;DHT22;422;51.280;7.236;2023-12-29T02:24:08;9.90;99.90
871;DHT22;422;51.280;7.236;2023-12-29T02:26:37;9.90;99.90
871;DHT22;422;51.280;7.236;2023-12-29T02:29:07;9.90;99.90
871;DHT22;422;51.280;7.236;2023-12-29T02:31:39;9.80;1.00
871;DHT22;422;51.280;7.236;2023-12-29T02:34:08;9.70;12.20
871;DHT22;422;51.280;7.236;2023-12-29T02:36:37;9.60;99.90
871;DHT22;422;51.280;7.236;2023-12-29T02:39:09;9.50;99.90
871;DHT22;422;51.280;7.236;2023-12-29T02:41:38;9.40;1.00
871;DHT22;422;51.280;7.236;2023-12-29T02:44:05;9.40;1.00
871;DHT22;422;51.280;7.236;2023-12-29T02:46:32;9.30;64.90
871;DHT22;422;51.280;7.236;2023-12-29T02:49:00;9.20;99.90
871;DHT22;422;51.280;7.236;2023-12-29T02:51:27;9.10;99.90
871;DHT22;422;51.280;7.236;2023-12-29T02:53:54;9.00;1.00
871;DHT22;422;51.280;7.236;2023-12-29T02:56:21;9.00;1.00
871;DHT22;422;51.280;7.236;2023-12-29T02:58:50;9.00;1.00
871;DHT22;422;51.280;7.236;2023-12-29T03:01:17;9.00;1.00
871;DHT22;422;51.280;7.236;2023-12-29T03:03:44;8.90;1.00
871;DHT22;422;51.280;7.236;2023-12-29T03:06:11;8.90;1.00
871;DHT22;422;51.280;7.236;2023-12-29T03:08:39;8.90;1.00
871;DHT22;422;51.280;7.236;2023-12-29T03:11:07;8.90;1.00
871;DHT22;422;51.280;7.236;2023-12-29T03:13:34;8.90;1.00
871;DHT22;422;51.280;7.236;2023-12-29T03:16:03;8.90;1.00
871;DHT22;422;51.280;7.236;2023-12-29T03:18:32;8.90;1.00
871;DHT22;422;51.280;7.236;2023-12-29T03:20:59;9.00;1.00
871;DHT22;422;51.280;7.236;2023-12-29T03:23:26;9.00;1.00
871;DHT22;422;51.280;7.236;2023-12-29T03:25:54;9.00;1.00
871;DHT22;422;51.280;7.236;2023-12-29T03:28:21;9.00;1.00
871;DHT22;422;51.280;7.236;2023-12-29T03:30:48;9.00;1.00
871;DHT22;422;51.280;7.236;2023-12-29T03:33:17;9.10;1.00
871;DHT22;422;51.280;7.236;2023-12-29T03:35:44;9.10;99.90
871;DHT22;422;51.280;7.236;2023-12-29T03:38:11;9.10;99.90
871;DHT22;422;51.280;7.236;2023-12-29T03:40:38;9.10;99.90
871;DHT22;422;51.280;7.236;2023-12-29T03:43:05;9.20;99.90
871;DHT22;422;51.280;7.236;2023-12-29T03:45:33;9.20;99.90
871;DHT22;422;51.280;7.236;2023-12-29T03:48:00;9.30;99.90
871;DHT22;422;51.280;7.236;2023-12-29T03:50:29;9.20;99.90
871;DHT22;422;51.280;7.236;2023-12-29T03:52:56;9.30;99.90
871;DHT22;422;51.280;7.236;2023-12-29T03:55:23;9.20;99.90
871;DHT22;422;51.280;7.236;2023-12-29T03:57:50;9.30;84.10
871;DHT22;422;51.280;7.236;2023-12-29T04:00:18;9.30;58.50
871;DHT22;422;51.280;7.236;2023-12-29T04:02:45;9.40;1.00
871;DHT22;422;51.280;7.236;2023-12-29T04:05:12;9.30;1.00
871;DHT22;422;51.280;7.236;2023-12-29T04:07:41;9.30;1.00
871;DHT22;422;51.280;7.236;2023-12-29T04:10:08;9.40;1.00
871;DHT22;422;51.280;7.236;2023-12-29T04:12:36;9.40;1.00
871;DHT22;422;51.280;7.236;2023-12-29T04:15:04;9.40;1.00
871;DHT22;422;51.280;7.236;2023-12-29T04:17:31;9.40;1.00
871;DHT22;422;51.280;7.236;2023-12-29T04:19:59;9.40;1.00
871;DHT22;422;51.280;7.236;2023-12-29T04:22:26;9.40;1.00
871;DHT22;422;51.280;7.236;2023-12-29T04:24:55;9.40;1.00
871;DHT22;422;51.280;7.236;2023-12-29T04:27:22;9.40;1.00
871;DHT22;422;51.280;7.236;2023-12-29T04:29:49;9.40;1.00
871;DHT22;422;51.280;7.236;2023-12-29T04:32:16;9.50;1.00
871;DHT22;422;51.280;7.236;2023-12-29T04:34:43;9.50;1.00
871;DHT22;422;51.280;7.236;2023-12-29T04:37:10;9.40;23.80
871;DHT22;422;51.280;7.236;2023-12-29T04:39:38;9.30;99.90
871;DHT22;422;51.280;7.236;2023-12-29T04:42:06;9.20;99.90
871;DHT22;422;51.280;7.236;2023-12-29T04:44:33;9.20;99.90
871;DHT22;422;51.280;7.236;2023-12-29T04:47:00;9.20;1.00
871;DHT22;422;51.280;7.236;2023-12-29T04:49:28;9.10;1.00
871;DHT22;422;51.280;7.236;2023-12-29T04:51:55;9.10;1.00
871;DHT22;422;51.280;7.236;2023-12-29T04:54:23;9.10;1.00
871;DHT22;422;51.280;7.236;2023-12-29T04:56:53;9.10;99.90
871;DHT22;422;51.280;7.236;2023-12-29T04:59:22;9.20;99.90
871;DHT22;422;51.280;7.236;2023-12-29T05:01:49;9.20;99.90
871;DHT22;422;51.280;7.236;2023-12-29T05:04:16;9.30;99.90
871;DHT22;422;51.280;7.236;2023-12-29T05:06:43;9.20;99.90
871;DHT22;422;51.280;7.236;2023-12-29T05:09:11;9.30;99.90
871;DHT22;422;51.280;7.236;2023-12-29T05:11:38;9.30;99.90
871;DHT22;422;51.280;7.236;2023-12-29T05:14:05;9.30;99.90
871;DHT22;422;51.280;7.236;2023-12-29T05:16:33;9.40;17.20
871;DHT22;422;51.280;7.236;2023-12-29T05:19:00;9.40;1.00
871;DHT22;422;51.280;7.236;2023-12-29T05:21:27;9.40;1.00
871;DHT22;422;51.280;7.236;2023-12-29T05:23:54;9.40;1.00
871;DHT22;422;51.280;7.236;2023-12-29T05:26:22;9.40;1.00
871;DHT22;422;51.280;7.236;2023-12-29T05:28:49;9.40;1.00
871;DHT22;422;51.280;7.236;2023-12-29T05:31:16;9.40;1.00
871;DHT22;422;51.280;7.236;2023-12-29T05:33:45;9.50;1.00
871;DHT22;422;51.280;7.236;2023-12-29T05:36:12;9.50;1.00
871;DHT22;422;51.280;7.236;2023-12-29T05:38:40;9.50;1.00
871;DHT22;422;51.280;7.236;2023-12-29T05:41:07;9.50;1.00
871;DHT22;422;51.280;7.236;2023-12-29T05:43:34;9.50;1.00
871;DHT22;422;51.280;7.236;2023-12-29T05:46:02;9.50;1.00
871;DHT22;422;51.280;7.236;2023-12-29T05:48:29;9.50;1.00
871;DHT22;422;51.280;7.236;2023-12-29T05:50:58;9.50;99.90
871;DHT22;422;51.280;7.236;2023-12-29T05:53:25;9.50;99.90
871;DHT22;422;51.280;7.236;2023-12-29T05:55:52;9.50;99.90
871;DHT22;422;51.280;7.236;2023-12-29T05:58:19;9.60;99.90
871;DHT22;422;51.280;7.236;2023-12-29T06:00:47;9.60;99.90
871;DHT22;422;51.280;7.236;2023-12-29T06:03:14;9.50;99.90
871;DHT22;422;51.280;7.236;2023-12-29T06:05:41;9.60;99.90
871;DHT22;422;51.280;7.236;2023-12-29T06:08:10;9.50;99.90
871;DHT22;422;51.280;7.236;2023-12-29T06:10:37;9.50;97.00
871;DHT22;422;51.280;7.236;2023-12-29T06:13:04;9.50;99.90
871;DHT22;422;51.280;7.236;2023-12-29T06:15:32;9.50;99.90
871;DHT22;422;51.280;7.236;2023-12-29T06:17:59;9.50;99.90
871;DHT22;422;51.280;7.236;2023-12-29T06:20:27;9.50;99.90
871;DHT22;422;51.280;7.236;2023-12-29T06:22:55;9.50;99.90
871;DHT22;422;51.280;7.236;2023-12-29T06:25:24;9.50;99.90
871;DHT22;422;51.280;7.236;2023-12-29T06:27:51;9.50;99.90
871;DHT22;422;51.280;7.236;2023-12-29T06:30:19;9.50;99.90
871;DHT22;422;51.280;7.236;2023-12-29T06:32:46;9.50;99.90
871;DHT22;422;51.280;7.236;2023-12-29T06:35:13;9.50;99.90
871;DHT22;422;51.280;7.236;2023-12-29T06:37:41;9.50;99.90
871;DHT22;422;51.280;7.236;2023-12-29T06:40:08;9.50;99.90
871;DHT22;422;51.280;7.236;2023-12-29T06:42:37;9.50;99.90
871;DHT22;422;51.280;7.236;2023-12-29T06:45:05;9.50;99.90
871;DHT22;422;51.280;7.236;2023-12-29T06:47:34;9.50;99.90
871;DHT22;422;51.280;7.236;2023-12-29T06:50:01;9.50;99.90
871;DHT22;422;51.280;7.236;2023-12-29T06:52:29;9.40;99.90
871;DHT22;422;51.280;7.236;2023-12-29T06:54:59;9.40;99.90
871;DHT22;422;51.280;7.236;2023-12-29T06:57:27;9.50;99.90
871;DHT22;422;51.280;7.236;2023-12-29T06:59:56;9.50;99.90
871;DHT22;422;51.280;7.236;2023-12-29T07:02:23;9.40;99.90
871;DHT22;422;51.280;7.236;2023-12-29T07:04:51;9.40;99.90
871;DHT22;422;51.280;7.236;2023-12-29T07:07:18;9.40;99.90
871;DHT22;422;51.280;7.236;2023-12-29T07:09:45;9.40;99.90
871;DHT22;422;51.280;7.236;2023-12-29T07:12:12;9.40;99.90
871;DHT22;422;51.280;7.236;2023-12-29T07:14:41;9.40;99.90
871;DHT22;422;51.280;7.236;2023-12-29T07:17:12;9.40;99.90
871;DHT22;422;51.280;7.236;2023-12-29T07:19:39;9.40;99.90
871;DHT22;422;51.280;7.236;2023-12-29T07:22:07;9.40;99.90
871;DHT22;422;51.280;7.236;2023-12-29T07:24:35;9.40;99.90
871;DHT22;422;51.280;7.236;2023-12-29T07:27:03;9.40;99.90
871;DHT22;422;51.280;7.236;2023-12-29T07:29:31;9.40;99.90
871;DHT22;422;51.280;7.236;2023-12-29T07:31:59;9.40;99.90
871;DHT22;422;51.280;7.236;2023-12-29T07:34:27;9.30;99.90
871;DHT22;422;51.280;7.236;2023-12-29T07:36:56;9.30;99.90
871;DHT22;422;51.280;7.236;2023-12-29T07:39:24;9.30;99.90
871;DHT22;422;51.280;7.236;2023-12-29T07:41:51;9.40;99.90
871;DHT22;422;51.280;7.236;2023-12-29T07:44:19;9.30;99.90
871;DHT22;422;51.280;7.236;2023-12-29T07:46:46;9.30;99.90
871;DHT22;422;51.280;7.236;2023-12-29T07:49:16;9.40;99.90
871;DHT22;422;51.280;7.236;2023-12-29T07:51:46;9.40;99.90
871;DHT22;422;51.280;7.236;2023-12-29T07:54:14;9.30;99.90
871;DHT22;422;51.280;7.236;2023-12-29T07:56:41;9.30;1.00
871;DHT22;422;51.280;7.236;2023-12-29T07:59:08;9.30;1.00
871;DHT22;422;51.280;7.236;2023-12-29T08:01:35;9.30;99.90
871;DHT22;422;51.280;7.236;2023-12-29T08:04:04;9.20;99.90
871;DHT22;422;51.280;7.236;2023-12-29T08:06:32;9.10;99.90
871;DHT22;422;51.280;7.236;2023-12-29T08:09:01;9.00;1.00
871;DHT22;422;51.280;7.236;2023-12-29T08:11:28;8.90;1.00
871;DHT22;422;51.280;7.236;2023-12-29T08:13:55;8.90;1.00
871;DHT22;422;51.280;7.236;2023-12-29T08:16:22;8.90;43.70
871;DHT22;422;51.280;7.236;2023-12-29T08:18:50;8.80;99.90
871;DHT22;422;51.280;7.236;2023-12-29T08:21:17;8.80;99.90
871;DHT22;422;51.280;7.236;2023-12-29T08:23:45;8.70;1.00
871;DHT22;422;51.280;7.236;2023-12-29T08:26:14;8.70;1.00
871;DHT22;422;51.280;7.236;2023-12-29T08:28:42;8.70;1.00
871;DHT22;422;51.280;7.236;2023-12-29T08:31:10;8.70;1.00
871;DHT22;422;51.280;7.236;2023-12-29T08:33:38;8.60;25.20
871;DHT22;422;51.280;7.236;2023-12-29T08:36:06;8.70;91.60
871;DHT22;422;51.280;7.236;2023-12-29T08:38:33;8.70;99.90
871;DHT22;422;51.280;7.236;2023-12-29T08:41:00;8.70;99.90
871;DHT22;422;51.280;7.236;2023-12-29T08:43:29;8.70;99.90
871;DHT22;422;51.280;7.236;2023-12-29T08:45:57;8.70;99.90
871;DHT22;422;51.280;7.236;2023-12-29T08:48:24;8.70;1.00
871;DHT22;422;51.280;7.236;2023-12-29T08:50:51;8.70;1.00
871;DHT22;422;51.280;7.236;2023-12-29T08:53:18;8.70;1.00
871;DHT22;422;51.280;7.236;2023-12-29T08:55:45;8.70;49.40
871;DHT22;422;51.280;7.236;2023-12-29T08:58:12;8.70;99.90
871;DHT22;422;51.280;7.236;2023-12-29T09:00:41;8.70;99.90
871;DHT22;422;51.280;7.236;2023-12-29T09:03:09;8.80;99.90
871;DHT22;422;51.280;7.236;2023-12-29T09:05:36;8.80;99.90
871;DHT22;422;51.280;7.236;2023-12-29T09:08:04;8.80;99.90
871;DHT22;422;51.280;7.236;2023-12-29T09:10:32;8.80;99.90
871;DHT22;422;51.280;7.236;2023-12-29T09:12:59;8.90;99.90
871;DHT22;422;51.280;7.236;2023-12-29T09:15:26;8.90;99.90
871;DHT22;422;51.280;7.236;2023-12-29T09:17:55;8.90;99.90
871;DHT22;422;51.280;7.236;2023-12-29T09:20:23;8.90;99.90
871;DHT22;422;51.280;7.236;2023-12-29T09:22:50;8.90;99.90
871;DHT22;422;51.280;7.236;2023-12-29T09:25:17;8.90;99.90
871;DHT22;422;51.280;7.236;2023-12-29T09:27:45;8.90;99.90
871;DHT22;422;51.280;7.236;2023-12-29T09:30:15;8.90;99.90
871;DHT22;422;51.280;7.236;2023-12-29T09:32:42;8.90;99.90
871;DHT22;422;51.280;7.236;2023-12-29T09:35:11;8.90;99.90
871;DHT22;422;51.280;7.236;2023-12-29T09:37:38;8.90;99.90
871;DHT22;422;51.280;7.236;2023-12-29T09:40:07;8.90;44.20
871;DHT22;422;51.280;7.236;2023-12-29T09:42:35;9.00;1.00
871;DHT22;422;51.280;7.236;2023-12-29T09:45:07;9.00;1.00
871;DHT22;422;51.280;7.236;2023-12-29T09:47:38;9.00;1.30
871;DHT22;422;51.280;7.236;2023-12-29T09:50:07;9.00;1.00
871;DHT22;422;51.280;7.236;2023-12-29T09:52:39;9.00;3.90
871;DHT22;422;51.280;7.236;2023-12-29T09:55:09;9.00;35.70
871;DHT22;422;51.280;7.236;2023-12-29T09:57:37;9.00;25.00
871;DHT22;422;51.280;7.236;2023-12-29T10:00:05;9.00;97.10
871;DHT22;422;51.280;7.236;2023-12-29T10:02:33;9.00;99.90
871;DHT22;422;51.280;7.236;2023-12-29T10:05:03;9.00;99.90
871;DHT22;422;51.280;7.236;2023-12-29T10:07:36;9.00;99.90
871;DHT22;422;51.280;7.236;2023-12-29T10:10:06;9.00;99.90
871;DHT22;422;51.280;7.236;2023-12-29T10:12:35;9.00;99.90
871;DHT22;422;51.280;7.236;2023-12-29T10:15:06;9.00;99.90
871;DHT22;422;51.280;7.236;2023-12-29T10:17:43;9.00;99.90
871;DHT22;422;51.280;7.236;2023-12-29T10:20:25;8.90;99.90
871;DHT22;422;51.280;7.236;2023-12-29T10:23:00;9.00;99.90
871;DHT22;422;51.280;7.236;2023-12-29T10:25:33;8.90;99.90
871;DHT22;422;51.280;7.236;2023-12-29T10:28:00;9.00;99.90
871;DHT22;422;51.280;7.236;2023-12-29T10:30:28;8.90;99.90
871;DHT22;422;51.280;7.236;2023-12-29T10:32:56;8.90;99.90
871;DHT22;422;51.280;7.236;2023-12-29T10:35:24;8.90;99.90
871;DHT22;422;51.280;7.236;2023-12-29T10:37:51;8.90;99.90
871;DHT22;422;51.280;7.236;2023-12-29T10:40:19;8.90;99.90
871;DHT22;422;51.280;7.236;2023-12-29T10:42:54;8.90;99.90
871;DHT22;422;51.280;7.236;2023-12-29T10:45:23;8.90;99.90
871;DHT22;422;51.280;7.236;2023-12-29T10:47:51;8.90;99.90
871;DHT22;422;51.280;7.236;2023-12-29T10:50:18;9.00;99.90
871;DHT22;422;51.280;7.236;2023-12-29T10:52:45;9.00;99.90
871;DHT22;422;51.280;7.236;2023-12-29T10:55:13;9.00;99.90
871;DHT22;422;51.280;7.236;2023-12-29T10:57:40;9.00;99.90
871;DHT22;422;51.280;7.236;2023-12-29T11:00:10;9.10;99.90
871;DHT22;422;51.280;7.236;2023-12-29T11:02:39;9.10;99.90
871;DHT22;422;51.280;7.236;2023-12-29T11:05:08;9.10;99.90
871;DHT22;422;51.280;7.236;2023-12-29T11:07:37;9.10;99.90
871;DHT22;422;51.280;7.236;2023-12-29T11:10:06;9.10;99.90
871;DHT22;422;51.280;7.236;2023-12-29T11:12:35;9.10;99.90
871;DHT22;422;51.280;7.236;2023-12-29T11:15:04;9.10;99.90
871;DHT22;422;51.280;7.236;2023-12-29T11:17:33;9.10;99.90
871;DHT22;422;51.280;7.236;2023-12-29T11:20:02;9.10;99.90
871;DHT22;422;51.280;7.236;2023-12-29T11:22:30;9.20;99.90
871;DHT22;422;51.280;7.236;2023-12-29T11:24:58;9.20;99.90
871;DHT22;422;51.280;7.236;2023-12-29T11:27:27;9.30;99.90
871;DHT22;422;51.280;7.236;2023-12-29T11:29:55;9.30;99.90
871;DHT22;422;51.280;7.236;2023-12-29T11:32:32;9.40;99.90
871;DHT22;422;51.280;7.236;2023-12-29T11:35:12;9.40;99.90
871;DHT22;422;51.280;7.236;2023-12-29T11:38:10;9.50;99.90
871;DHT22;422;51.280;7.236;2023-12-29T11:40:43;9.50;99.90
871;DHT22;422;51.280;7.236;2023-12-29T11:43:15;9.60;99.90
871;DHT22;422;51.280;7.236;2023-12-29T11:45:43;9.70;99.90
871;DHT22;422;51.280;7.236;2023-12-29T11:48:10;9.70;99.90
871;DHT22;422;51.280;7.236;2023-12-29T11:50:40;9.70;99.90
871;DHT22;422;51.280;7.236;2023-12-29T11:53:08;9.80;99.90
871;DHT22;422;51.280;7.236;2023-12-29T11:55:36;9.90;99.90
871;DHT22;422;51.280;7.236;2023-12-29T11:58:04;9.90;99.90
871;DHT22;422;51.280;7.236;2023-12-29T12:00:45;9.90;99.90
871;DHT22;422;51.280;7.236;2023-12-29T12:03:24;9.80;99.90
871;DHT22;422;51.280;7.236;2023-12-29T12:05:54;9.80;99.90
871;DHT22;422;51.280;7.236;2023-12-29T12:08:28;9.80;99.90
871;DHT22;422;51.280;7.236;2023-12-29T12:10:55;9.70;99.90
871;DHT22;422;51.280;7.236;2023-12-29T12:13:44;9.80;99.90
871;DHT22;422;51.280;7.236;2023-12-29T12:19:12;9.60;99.90
871;DHT22;422;51.280;7.236;2023-12-29T12:21:41;9.60;99.90
871;DHT22;422;51.280;7.236;2023-12-29T12:24:08;9.60;99.90
871;DHT22;422;51.280;7.236;2023-12-29T12:26:35;9.60;99.90
871;DHT22;422;51.280;7.236;2023-12-29T12:29:04;9.60;99.90
871;DHT22;422;51.280;7.236;2023-12-29T12:31:31;9.70;99.90
871;DHT22;422;51.280;7.236;2023-12-29T12:33:59;9.60;99.90
871;DHT22;422;51.280;7.236;2023-12-29T12:36:26;9.50;99.90
871;DHT22;422;51.280;7.236;2023-12-29T12:38:56;9.60;99.90
871;DHT22;422;51.280;7.236;2023-12-29T12:41:26;9.50;99.90
871;DHT22;422;51.280;7.236;2023-12-29T12:44:00;9.40;99.90
871;DHT22;422;51.280;7.236;2023-12-29T12:46:34;9.30;99.90
871;DHT22;422;51.280;7.236;2023-12-29T12:49:02;9.20;99.90
871;DHT22;422;51.280;7.236;2023-12-29T12:51:31;9.20;99.90
871;DHT22;422;51.280;7.236;2023-12-29T12:54:01;9.20;99.90
871;DHT22;422;51.280;7.236;2023-12-29T12:56:28;9.10;99.90
871;DHT22;422;51.280;7.236;2023-12-29T12:58:57;9.20;99.90
871;DHT22;422;51.280;7.236;2023-12-29T13:01:24;9.10;99.90
871;DHT22;422;51.280;7.236;2023-12-29T13:03:52;9.30;99.90
871;DHT22;422;51.280;7.236;2023-12-29T13:06:20;9.30;99.90
871;DHT22;422;51.280;7.236;2023-12-29T13:08:49;9.30;99.90
871;DHT22;422;51.280;7.236;2023-12-29T13:11:21;9.40;99.90
871;DHT22;422;51.280;7.236;2023-12-29T13:13:51;9.40;99.90
871;DHT22;422;51.280;7.236;2023-12-29T13:16:29;9.40;99.90
871;DHT22;422;51.280;7.236;2023-12-29T13:18:57;9.40;99.90
871;DHT22;422;51.280;7.236;2023-12-29T13:21:24;9.40;99.90
871;DHT22;422;51.280;7.236;2023-12-29T13:23:51;9.40;99.90
871;DHT22;422;51.280;7.236;2023-12-29T13:26:24;9.40;99.90
871;DHT22;422;51.280;7.236;2023-12-29T13:28:54;9.40;99.90
871;DHT22;422;51.280;7.236;2023-12-29T13:31:21;9.40;99.90
871;DHT22;422;51.280;7.236;2023-12-29T13:33:52;9.40;99.90
871;DHT22;422;51.280;7.236;2023-12-29T13:36:28;9.40;99.90
871;DHT22;422;51.280;7.236;2023-12-29T13:39:03;9.50;99.90
871;DHT22;422;51.280;7.236;2023-12-29T13:41:35;9.40;99.90
871;DHT22;422;51.280;7.236;2023-12-29T13:44:04;9.50;99.90
871;DHT22;422;51.280;7.236;2023-12-29T13:46:32;9.50;99.90
871;DHT22;422;51.280;7.236;2023-12-29T13:49:00;9.50;99.90
871;DHT22;422;51.280;7.236;2023-12-29T13:51:28;9.50;99.90
871;DHT22;422;51.280;7.236;2023-12-29T13:53:59;9.50;99.90
871;DHT22;422;51.280;7.236;2023-12-29T13:56:26;9.50;99.90
871;DHT22;422;51.280;7.236;2023-12-29T13:58:58;9.50;99.90
871;DHT22;422;51.280;7.236;2023-12-29T14:01:35;9.50;99.90
871;DHT22;422;51.280;7.236;2023-12-29T14:04:06;9.50;99.90
871;DHT22;422;51.280;7.236;2023-12-29T14:06:39;9.50;99.90
871;DHT22;422;51.280;7.236;2023-12-29T14:09:14;9.60;99.90
871;DHT22;422;51.280;7.236;2023-12-29T14:11:45;9.60;99.90
871;DHT22;422;51.280;7.236;2023-12-29T14:14:20;9.60;99.90
871;DHT22;422;51.280;7.236;2023-12-29T14:16:48;9.60;99.90
871;DHT22;422;51.280;7.236;2023-12-29T14:19:15;9.60;99.90
871;DHT22;422;51.280;7.236;2023-12-29T14:21:43;9.60;99.90
871;DHT22;422;51.280;7.236;2023-12-29T14:24:12;9.60;99.90
871;DHT22;422;51.280;7.236;2023-12-29T14:26:41;9.60;99.90
871;DHT22;422;51.280;7.236;2023-12-29T14:29:13;9.70;99.90
871;DHT22;422;51.280;7.236;2023-12-29T14:31:41;9.60;99.90
871;DHT22;422;51.280;7.236;2023-12-29T14:34:10;9.60;99.90
871;DHT22;422;51.280;7.236;2023-12-29T14:36:38;9.60;77.00
871;DHT22;422;51.280;7.236;2023-12-29T14:39:05;9.60;99.90
871;DHT22;422;51.280;7.236;2023-12-29T14:41:33;9.50;99.90
871;DHT22;422;51.280;7.236;2023-12-29T14:44:00;9.50;99.90
871;DHT22;422;51.280;7.236;2023-12-29T14:46:29;9.40;99.90
871;DHT22;422;51.280;7.236;2023-12-29T14:48:57;9.40;99.90
871;DHT22;422;51.280;7.236;2023-12-29T14:51:25;9.40;99.90
871;DHT22;422;51.280;7.236;2023-12-29T14:53:52;9.40;99.90
871;DHT22;422;51.280;7.236;2023-12-29T14:56:19;9.30;77.90
871;DHT22;422;51.280;7.236;2023-12-29T14:58:47;9.30;99.90
871;DHT22;422;51.280;7.236;2023-12-29T15:01:14;9.30;95.10
871;DHT22;422;51.280;7.236;2023-12-29T15:03:43;9.30;94.60
871;DHT22;422;51.280;7.236;2023-12-29T15:06:10;9.10;73.10
871;DHT22;422;51.280;7.236;2023-12-29T15:08:37;9.10;99.90
871;DHT22;422;51.280;7.236;2023-12-29T15:11:05;9.10;99.90
871;DHT22;422;51.280;7.236;2023-12-29T15:13:33;9.00;99.90
871;DHT22;422;51.280;7.236;2023-12-29T15:16:02;9.00;99.90
871;DHT22;422;51.280;7.236;2023-12-29T15:18:29;8.90;99.90
871;DHT22;422;51.280;7.236;2023-12-29T15:20:58;8.90;99.90
871;DHT22;422;51.280;7.236;2023-12-29T15:23:26;8.90;99.90
871;DHT22;422;51.280;7.236;2023-12-29T15:25:54;8.90;99.90
871;DHT22;422;51.280;7.236;2023-12-29T15:28:21;8.80;99.90
871;DHT22;422;51.280;7.236;2023-12-29T15:30:48;8.90;99.90
871;DHT22;422;51.280;7.236;2023-12-29T15:33:16;8.80;99.90
871;DHT22;422;51.280;7.236;2023-12-29T15:35:44;8.80;99.90
871;DHT22;422;51.280;7.236;2023-12-29T15:38:13;8.90;99.90
871;DHT22;422;51.280;7.236;2023-12-29T15:40:40;8.90;99.90
871;DHT22;422;51.280;7.236;2023-12-29T15:43:08;9.00;99.90
871;DHT22;422;51.280;7.236;2023-12-29T15:45:35;9.10;99.90
871;DHT22;422;51.280;7.236;2023-12-29T15:48:03;9.10;99.90
871;DHT22;422;51.280;7.236;2023-12-29T15:50:31;9.20;99.90
871;DHT22;422;51.280;7.236;2023-12-29T15:52:58;9.30;99.90
871;DHT22;422;51.280;7.236;2023-12-29T15:55:28;9.30;99.90
871;DHT22;422;51.280;7.236;2023-12-29T15:57:55;9.40;99.90
871;DHT22;422;51.280;7.236;2023-12-29T16:00:22;9.50;99.90
871;DHT22;422;51.280;7.236;2023-12-29T16:02:50;9.50;99.90
871;DHT22;422;51.280;7.236;2023-12-29T16:05:17;9.50;99.90
871;DHT22;422;51.280;7.236;2023-12-29T16:07:44;9.50;99.90
871;DHT22;422;51.280;7.236;2023-12-29T16:10:11;9.50;99.90
871;DHT22;422;51.280;7.236;2023-12-29T16:12:40;9.50;99.90
871;DHT22;422;51.280;7.236;2023-12-29T16:15:09;9.40;99.90
871;DHT22;422;51.280;7.236;2023-12-29T16:17:36;9.40;99.90
871;DHT22;422;51.280;7.236;2023-12-29T16:20:04;9.40;99.90
871;DHT22;422;51.280;7.236;2023-12-29T16:22:32;9.40;99.90
871;DHT22;422;51.280;7.236;2023-12-29T16:24:59;9.40;99.90
871;DHT22;422;51.280;7.236;2023-12-29T16:27:27;9.40;99.90
871;DHT22;422;51.280;7.236;2023-12-29T16:29:55;9.40;99.90
871;DHT22;422;51.280;7.236;2023-12-29T16:32:23;9.40;99.90
871;DHT22;422;51.280;7.236;2023-12-29T16:34:53;9.40;99.90
871;DHT22;422;51.280;7.236;2023-12-29T16:37:20;9.40;99.90
871;DHT22;422;51.280;7.236;2023-12-29T16:39:47;9.40;99.90
871;DHT22;422;51.280;7.236;2023-12-29T16:42:15;9.40;99.90
871;DHT22;422;51.280;7.236;2023-12-29T16:44:43;9.40;99.90
871;DHT22;422;51.280;7.236;2023-12-29T16:47:12;9.40;99.90
871;DHT22;422;51.280;7.236;2023-12-29T16:49:40;9.40;99.90
871;DHT22;422;51.280;7.236;2023-12-29T16:52:07;9.40;99.90
871;DHT22;422;51.280;7.236;2023-12-29T16:54:34;9.40;99.90
871;DHT22;422;51.280;7.236;2023-12-29T16:57:02;9.40;99.90
871;DHT22;422;51.280;7.236;2023-12-29T16:59:30;9.40;99.90
871;DHT22;422;51.280;7.236;2023-12-29T17:01:57;9.40;99.90
871;DHT22;422;51.280;7.236;2023-12-29T17:04:26;9.50;99.90
871;DHT22;422;51.280;7.236;2023-12-29T17:06:54;9.40;99.90